sensor_id;sensor_type;location;lat;lon;timestamp;P1;durP1;ratioP1;P2;durP2;ratioP2
51943;SDS011;37969;53.132;6.370;2023-04-24T00:01:45;10.90;;;8.68;;
51943;SDS011;37969;53.132;6.370;2023-04-24T00:04:11;9.30;;;8.45;;
51943;SDS011;37969;53.132;6.370;2023-04-24T00:06:41;11.10;;;8.73;;
51943;SDS011;37969;53.132;6.370;2023-04-24T00:09:08;11.07;;;8.35;;
51943;SDS011;37969;53.132;6.370;2023-04-24T00:11:35;9.55;;;8.65;;
51943;SDS011;37969;53.132;6.370;2023-04-24T00:14:01;10.32;;;8.38;;
51943;SDS011;37969;53.132;6.370;2023-04-24T00:16:27;12.60;;;8.15;;
51943;SDS011;37969;53.132;6.370;2023-04-24T00:18:54;12.38;;;7.90;;
51943;SDS011;37969;53.132;6.370;2023-04-24T00:21:20;9.43;;;8.30;;
51943;SDS011;37969;53.132;6.370;2023-04-24T00:23:46;9.20;;;8.27;;
51943;SDS011;37969;53.132;6.370;2023-04-24T00:26:13;6.88;;;5.95;;
51943;SDS011;37969;53.132;6.370;2023-04-24T00:28:39;10.02;;;6.97;;
51943;SDS011;37969;53.132;6.370;2023-04-24T00:31:05;6.72;;;6.13;;
51943;SDS011;37969;53.132;6.370;2023-04-24T00:33:32;5.60;;;4.82;;
51943;SDS011;37969;53.132;6.370;2023-04-24T00:35:58;3.83;;;3.60;;
51943;SDS011;37969;53.132;6.370;2023-04-24T00:38:24;3.47;;;3.28;;
51943;SDS011;37969;53.132;6.370;2023-04-24T00:40:50;3.10;;;2.70;;
51943;SDS011;37969;53.132;6.370;2023-04-24T00:43:17;3.58;;;2.65;;
51943;SDS011;37969;53.132;6.370;2023-04-24T00:45:43;2.88;;;2.67;;
51943;SDS011;37969;53.132;6.370;2023-04-24T00:48:09;2.92;;;2.70;;
51943;SDS011;37969;53.132;6.370;2023-04-24T00:50:37;3.47;;;3.28;;
51943;SDS011;37969;53.132;6.370;2023-04-24T00:53:04;3.00;;;2.70;;
51943;SDS011;37969;53.132;6.370;2023-04-24T00:55:30;3.00;;;2.78;;
51943;SDS011;37969;53.132;6.370;2023-04-24T00:57:56;4.82;;;3.30;;
51943;SDS011;37969;53.132;6.370;2023-04-24T01:00:23;3.45;;;3.25;;
51943;SDS011;37969;53.132;6.370;2023-04-24T01:02:49;3.65;;;3.30;;
51943;SDS011;37969;53.132;6.370;2023-04-24T01:05:16;3.80;;;3.50;;
51943;SDS011;37969;53.132;6.370;2023-04-24T01:07:44;3.25;;;2.95;;
51943;SDS011;37969;53.132;6.370;2023-04-24T01:10:13;3.33;;;3.00;;
51943;SDS011;37969;53.132;6.370;2023-04-24T01:12:39;3.15;;;2.90;;
51943;SDS011;37969;53.132;6.370;2023-04-24T01:15:05;3.83;;;3.45;;
51943;SDS011;37969;53.132;6.370;2023-04-24T01:17:32;4.65;;;3.30;;
51943;SDS011;37969;53.132;6.370;2023-04-24T01:19:59;3.20;;;3.00;;
51943;SDS011;37969;53.132;6.370;2023-04-24T01:22:26;2.92;;;2.60;;
51943;SDS011;37969;53.132;6.370;2023-04-24T01:24:52;3.25;;;2.90;;
51943;SDS011;37969;53.132;6.370;2023-04-24T01:27:19;3.83;;;2.78;;
51943;SDS011;37969;53.132;6.370;2023-04-24T01:29:45;4.38;;;3.28;;
51943;SDS011;37969;53.132;6.370;2023-04-24T01:32:14;3.00;;;2.80;;
51943;SDS011;37969;53.132;6.370;2023-04-24T01:34:40;3.33;;;3.10;;
51943;SDS011;37969;53.132;6.370;2023-04-24T01:37:06;2.83;;;2.63;;
51943;SDS011;37969;53.132;6.370;2023-04-24T01:39:32;3.00;;;2.90;;
51943;SDS011;37969;53.132;6.370;2023-04-24T01:41:59;3.03;;;2.70;;
51943;SDS011;37969;53.132;6.370;2023-04-24T01:44:27;3.30;;;3.10;;
51943;SDS011;37969;53.132;6.370;2023-04-24T01:46:54;4.53;;;3.15;;
51943;SDS011;37969;53.132;6.370;2023-04-24T01:49:21;3.85;;;3.60;;
51943;SDS011;37969;53.132;6.370;2023-04-24T01:51:47;3.95;;;3.60;;
51943;SDS011;37969;53.132;6.370;2023-04-24T01:54:13;4.05;;;3.75;;
51943;SDS011;37969;53.132;6.370;2023-04-24T01:56:41;4.47;;;4.18;;
51943;SDS011;37969;53.132;6.370;2023-04-24T01:59:10;4.65;;;4.25;;
51943;SDS011;37969;53.132;6.370;2023-04-24T02:01:36;5.20;;;4.80;;
51943;SDS011;37969;53.132;6.370;2023-04-24T02:04:03;5.68;;;5.28;;
51943;SDS011;37969;53.132;6.370;2023-04-24T02:06:29;6.28;;;5.03;;
51943;SDS011;37969;53.132;6.370;2023-04-24T02:08:57;5.53;;;5.13;;
51943;SDS011;37969;53.132;6.370;2023-04-24T02:11:24;6.95;;;6.35;;
51943;SDS011;37969;53.132;6.370;2023-04-24T02:13:50;7.32;;;6.63;;
51943;SDS011;37969;53.132;6.370;2023-04-24T02:16:16;7.00;;;6.30;;
51943;SDS011;37969;53.132;6.370;2023-04-24T02:18:42;7.15;;;6.55;;
51943;SDS011;37969;53.132;6.370;2023-04-24T02:21:09;7.10;;;6.50;;
51943;SDS011;37969;53.132;6.370;2023-04-24T02:23:35;6.72;;;6.22;;
51943;SDS011;37969;53.132;6.370;2023-04-24T02:26:01;8.27;;;7.53;;
51943;SDS011;37969;53.132;6.370;2023-04-24T02:28:27;10.63;;;8.52;;
51943;SDS011;37969;53.132;6.370;2023-04-24T02:30:53;10.23;;;8.32;;
51943;SDS011;37969;53.132;6.370;2023-04-24T02:33:19;11.10;;;9.25;;
51943;SDS011;37969;53.132;6.370;2023-04-24T02:35:46;10.00;;;8.90;;
51943;SDS011;37969;53.132;6.370;2023-04-24T02:38:12;11.15;;;10.02;;
51943;SDS011;37969;53.132;6.370;2023-04-24T02:40:38;10.73;;;9.73;;
51943;SDS011;37969;53.132;6.370;2023-04-24T02:43:04;10.70;;;9.60;;
51943;SDS011;37969;53.132;6.370;2023-04-24T02:45:30;11.85;;;9.80;;
51943;SDS011;37969;53.132;6.370;2023-04-24T02:47:56;14.57;;;12.27;;
51943;SDS011;37969;53.132;6.370;2023-04-24T02:50:22;13.32;;;11.32;;
51943;SDS011;37969;53.132;6.370;2023-04-24T02:52:48;14.65;;;12.23;;
51943;SDS011;37969;53.132;6.370;2023-04-24T02:55:15;13.48;;;11.45;;
51943;SDS011;37969;53.132;6.370;2023-04-24T02:57:41;12.93;;;11.73;;
51943;SDS011;37969;53.132;6.370;2023-04-24T03:00:07;13.63;;;12.32;;
51943;SDS011;37969;53.132;6.370;2023-04-24T03:02:34;14.93;;;13.43;;
51943;SDS011;37969;53.132;6.370;2023-04-24T03:05:00;15.55;;;14.00;;
51943;SDS011;37969;53.132;6.370;2023-04-24T03:07:27;19.45;;;13.85;;
51943;SDS011;37969;53.132;6.370;2023-04-24T03:09:53;16.63;;;14.52;;
51943;SDS011;37969;53.132;6.370;2023-04-24T03:12:19;15.68;;;14.07;;
51943;SDS011;37969;53.132;6.370;2023-04-24T03:14:48;18.23;;;15.18;;
51943;SDS011;37969;53.132;6.370;2023-04-24T03:17:14;16.88;;;15.23;;
51943;SDS011;37969;53.132;6.370;2023-04-24T03:19:41;17.65;;;15.73;;
51943;SDS011;37969;53.132;6.370;2023-04-24T03:22:07;18.73;;;16.58;;
51943;SDS011;37969;53.132;6.370;2023-04-24T03:24:34;18.40;;;16.35;;
51943;SDS011;37969;53.132;6.370;2023-04-24T03:27:00;20.60;;;17.67;;
51943;SDS011;37969;53.132;6.370;2023-04-24T03:29:26;18.33;;;16.23;;
51943;SDS011;37969;53.132;6.370;2023-04-24T03:31:52;19.83;;;17.65;;
51943;SDS011;37969;53.132;6.370;2023-04-24T03:34:19;18.83;;;16.77;;
51943;SDS011;37969;53.132;6.370;2023-04-24T03:36:45;20.20;;;18.05;;
51943;SDS011;37969;53.132;6.370;2023-04-24T03:39:12;21.90;;;17.88;;
51943;SDS011;37969;53.132;6.370;2023-04-24T03:41:39;19.63;;;17.52;;
51943;SDS011;37969;53.132;6.370;2023-04-24T03:44:05;22.95;;;18.25;;
51943;SDS011;37969;53.132;6.370;2023-04-24T03:46:32;24.00;;;20.23;;
51943;SDS011;37969;53.132;6.370;2023-04-24T03:48:58;22.73;;;19.70;;
51943;SDS011;37969;53.132;6.370;2023-04-24T03:51:24;24.05;;;21.45;;
51943;SDS011;37969;53.132;6.370;2023-04-24T03:53:52;27.80;;;21.98;;
51943;SDS011;37969;53.132;6.370;2023-04-24T03:56:18;28.02;;;24.05;;
51943;SDS011;37969;53.132;6.370;2023-04-24T03:58:46;25.60;;;22.90;;
51943;SDS011;37969;53.132;6.370;2023-04-24T04:01:12;25.45;;;22.25;;
51943;SDS011;37969;53.132;6.370;2023-04-24T04:03:38;27.90;;;22.83;;
51943;SDS011;37969;53.132;6.370;2023-04-24T04:06:05;25.27;;;22.60;;
51943;SDS011;37969;53.132;6.370;2023-04-24T04:08:31;28.40;;;24.58;;
51943;SDS011;37969;53.132;6.370;2023-04-24T04:10:57;29.17;;;23.48;;
51943;SDS011;37969;53.132;6.370;2023-04-24T04:13:23;25.48;;;22.77;;
51943;SDS011;37969;53.132;6.370;2023-04-24T04:15:49;28.67;;;22.67;;
51943;SDS011;37969;53.132;6.370;2023-04-24T04:18:15;24.83;;;22.17;;
51943;SDS011;37969;53.132;6.370;2023-04-24T04:20:42;31.17;;;24.60;;
51943;SDS011;37969;53.132;6.370;2023-04-24T04:23:08;30.65;;;24.73;;
51943;SDS011;37969;53.132;6.370;2023-04-24T04:25:34;34.38;;;25.80;;
51943;SDS011;37969;53.132;6.370;2023-04-24T04:28:00;27.42;;;23.33;;
51943;SDS011;37969;53.132;6.370;2023-04-24T04:30:27;26.17;;;23.35;;
51943;SDS011;37969;53.132;6.370;2023-04-24T04:32:54;21.00;;;18.48;;
51943;SDS011;37969;53.132;6.370;2023-04-24T04:35:21;24.80;;;21.98;;
51943;SDS011;37969;53.132;6.370;2023-04-24T04:37:47;19.60;;;17.55;;
51943;SDS011;37969;53.132;6.370;2023-04-24T04:40:13;20.45;;;17.85;;
51943;SDS011;37969;53.132;6.370;2023-04-24T04:42:40;17.58;;;15.48;;
51943;SDS011;37969;53.132;6.370;2023-04-24T04:45:06;14.48;;;11.75;;
51943;SDS011;37969;53.132;6.370;2023-04-24T04:47:34;9.52;;;7.55;;
51943;SDS011;37969;53.132;6.370;2023-04-24T04:50:00;4.40;;;4.00;;
51943;SDS011;37969;53.132;6.370;2023-04-24T04:52:28;7.00;;;5.40;;
51943;SDS011;37969;53.132;6.370;2023-04-24T04:54:54;3.88;;;3.58;;
51943;SDS011;37969;53.132;6.370;2023-04-24T04:57:21;5.20;;;3.83;;
51943;SDS011;37969;53.132;6.370;2023-04-24T04:59:47;4.05;;;3.63;;
51943;SDS011;37969;53.132;6.370;2023-04-24T05:02:13;3.80;;;2.60;;
51943;SDS011;37969;53.132;6.370;2023-04-24T05:04:39;3.25;;;2.97;;
51943;SDS011;37969;53.132;6.370;2023-04-24T05:07:05;3.47;;;2.50;;
51943;SDS011;37969;53.132;6.370;2023-04-24T05:09:31;3.40;;;3.10;;
51943;SDS011;37969;53.132;6.370;2023-04-24T05:11:57;3.00;;;2.80;;
51943;SDS011;37969;53.132;6.370;2023-04-24T05:14:24;3.20;;;3.00;;
51943;SDS011;37969;53.132;6.370;2023-04-24T05:16:50;3.85;;;3.50;;
51943;SDS011;37969;53.132;6.370;2023-04-24T05:19:16;3.80;;;3.50;;
51943;SDS011;37969;53.132;6.370;2023-04-24T05:21:42;3.90;;;3.65;;
51943;SDS011;37969;53.132;6.370;2023-04-24T05:24:08;3.55;;;3.25;;
51943;SDS011;37969;53.132;6.370;2023-04-24T05:26:34;5.05;;;4.30;;
51943;SDS011;37969;53.132;6.370;2023-04-24T05:29:01;4.00;;;3.60;;
51943;SDS011;37969;53.132;6.370;2023-04-24T05:31:27;4.95;;;3.40;;
51943;SDS011;37969;53.132;6.370;2023-04-24T05:33:55;3.65;;;3.35;;
51943;SDS011;37969;53.132;6.370;2023-04-24T05:36:21;5.68;;;4.47;;
51943;SDS011;37969;53.132;6.370;2023-04-24T05:38:47;4.07;;;3.75;;
51943;SDS011;37969;53.132;6.370;2023-04-24T05:41:13;7.05;;;4.57;;
51943;SDS011;37969;53.132;6.370;2023-04-24T05:43:40;4.25;;;3.95;;
51943;SDS011;37969;53.132;6.370;2023-04-24T05:46:06;5.22;;;3.90;;
51943;SDS011;37969;53.132;6.370;2023-04-24T05:48:32;4.20;;;2.65;;
51943;SDS011;37969;53.132;6.370;2023-04-24T05:50:58;3.40;;;3.10;;
51943;SDS011;37969;53.132;6.370;2023-04-24T05:53:24;7.63;;;4.20;;
51943;SDS011;37969;53.132;6.370;2023-04-24T05:55:50;4.93;;;4.32;;
51943;SDS011;37969;53.132;6.370;2023-04-24T05:58:17;7.07;;;5.22;;
51943;SDS011;37969;53.132;6.370;2023-04-24T06:00:43;6.25;;;5.18;;
51943;SDS011;37969;53.132;6.370;2023-04-24T06:03:11;6.72;;;5.72;;
51943;SDS011;37969;53.132;6.370;2023-04-24T06:05:38;8.93;;;5.65;;
51943;SDS011;37969;53.132;6.370;2023-04-24T06:08:04;9.43;;;6.38;;
51943;SDS011;37969;53.132;6.370;2023-04-24T06:10:31;6.50;;;5.85;;
51943;SDS011;37969;53.132;6.370;2023-04-24T06:12:57;8.95;;;5.88;;
51943;SDS011;37969;53.132;6.370;2023-04-24T06:15:27;5.40;;;4.82;;
51943;SDS011;37969;53.132;6.370;2023-04-24T06:17:53;8.68;;;5.85;;
51943;SDS011;37969;53.132;6.370;2023-04-24T06:20:19;16.90;;;6.60;;
51943;SDS011;37969;53.132;6.370;2023-04-24T06:22:45;9.57;;;6.00;;
51943;SDS011;37969;53.132;6.370;2023-04-24T06:25:11;11.40;;;6.57;;
51943;SDS011;37969;53.132;6.370;2023-04-24T06:27:37;10.95;;;5.80;;
51943;SDS011;37969;53.132;6.370;2023-04-24T06:30:04;14.45;;;6.82;;
51943;SDS011;37969;53.132;6.370;2023-04-24T06:32:30;7.95;;;6.38;;
51943;SDS011;37969;53.132;6.370;2023-04-24T06:34:56;10.45;;;6.82;;
51943;SDS011;37969;53.132;6.370;2023-04-24T06:37:23;9.63;;;5.82;;
51943;SDS011;37969;53.132;6.370;2023-04-24T06:39:49;7.00;;;5.07;;
51943;SDS011;37969;53.132;6.370;2023-04-24T06:42:15;7.55;;;6.60;;
51943;SDS011;37969;53.132;6.370;2023-04-24T06:44:41;8.00;;;6.18;;
51943;SDS011;37969;53.132;6.370;2023-04-24T06:47:08;8.63;;;5.97;;
51943;SDS011;37969;53.132;6.370;2023-04-24T06:49:35;5.47;;;4.30;;
51943;SDS011;37969;53.132;6.370;2023-04-24T06:52:01;5.78;;;3.83;;
51943;SDS011;37969;53.132;6.370;2023-04-24T06:54:28;3.88;;;3.53;;
51943;SDS011;37969;53.132;6.370;2023-04-24T06:56:54;5.03;;;3.67;;
51943;SDS011;37969;53.132;6.370;2023-04-24T06:59:20;5.57;;;3.78;;
51943;SDS011;37969;53.132;6.370;2023-04-24T07:01:47;6.00;;;3.50;;
51943;SDS011;37969;53.132;6.370;2023-04-24T07:04:13;4.30;;;3.38;;
51943;SDS011;37969;53.132;6.370;2023-04-24T07:06:39;6.22;;;3.45;;
51943;SDS011;37969;53.132;6.370;2023-04-24T07:09:05;7.72;;;3.60;;
51943;SDS011;37969;53.132;6.370;2023-04-24T07:11:34;9.02;;;3.67;;
51943;SDS011;37969;53.132;6.370;2023-04-24T07:14:01;5.68;;;3.80;;
51943;SDS011;37969;53.132;6.370;2023-04-24T07:16:28;6.70;;;3.80;;
51943;SDS011;37969;53.132;6.370;2023-04-24T07:18:55;7.18;;;2.80;;
51943;SDS011;37969;53.132;6.370;2023-04-24T07:21:21;7.38;;;4.30;;
51943;SDS011;37969;53.132;6.370;2023-04-24T07:23:47;9.63;;;4.22;;
51943;SDS011;37969;53.132;6.370;2023-04-24T07:26:13;7.82;;;3.83;;
51943;SDS011;37969;53.132;6.370;2023-04-24T07:28:40;6.00;;;3.13;;
51943;SDS011;37969;53.132;6.370;2023-04-24T07:31:06;5.10;;;2.28;;
51943;SDS011;37969;53.132;6.370;2023-04-24T07:33:32;5.63;;;2.53;;
51943;SDS011;37969;53.132;6.370;2023-04-24T07:35:59;11.27;;;3.13;;
51943;SDS011;37969;53.132;6.370;2023-04-24T07:38:25;4.68;;;2.53;;
51943;SDS011;37969;53.132;6.370;2023-04-24T07:40:51;8.50;;;4.25;;
51943;SDS011;37969;53.132;6.370;2023-04-24T07:43:19;7.05;;;5.10;;
51943;SDS011;37969;53.132;6.370;2023-04-24T07:45:46;10.43;;;5.43;;
51943;SDS011;37969;53.132;6.370;2023-04-24T07:48:12;19.17;;;8.75;;
51943;SDS011;37969;53.132;6.370;2023-04-24T07:50:41;18.55;;;10.77;;
51943;SDS011;37969;53.132;6.370;2023-04-24T07:53:07;23.83;;;13.73;;
51943;SDS011;37969;53.132;6.370;2023-04-24T07:55:33;29.33;;;14.38;;
51943;SDS011;37969;53.132;6.370;2023-04-24T07:58:00;26.33;;;16.25;;
51943;SDS011;37969;53.132;6.370;2023-04-24T08:00:26;28.60;;;16.70;;
51943;SDS011;37969;53.132;6.370;2023-04-24T08:02:52;26.80;;;15.27;;
51943;SDS011;37969;53.132;6.370;2023-04-24T08:05:18;26.15;;;15.60;;
51943;SDS011;37969;53.132;6.370;2023-04-24T08:07:45;33.42;;;16.92;;
51943;SDS011;37969;53.132;6.370;2023-04-24T08:10:13;35.30;;;18.87;;
51943;SDS011;37969;53.132;6.370;2023-04-24T08:12:40;38.30;;;21.05;;
51943;SDS011;37969;53.132;6.370;2023-04-24T08:15:06;35.63;;;18.40;;
51943;SDS011;37969;53.132;6.370;2023-04-24T08:17:33;37.25;;;19.88;;
51943;SDS011;37969;53.132;6.370;2023-04-24T08:20:00;24.48;;;16.98;;
51943;SDS011;37969;53.132;6.370;2023-04-24T08:22:27;28.38;;;16.50;;
51943;SDS011;37969;53.132;6.370;2023-04-24T08:24:53;27.42;;;16.30;;
51943;SDS011;37969;53.132;6.370;2023-04-24T08:27:21;24.95;;;14.73;;
51943;SDS011;37969;53.132;6.370;2023-04-24T08:29:47;35.08;;;17.25;;
51943;SDS011;37969;53.132;6.370;2023-04-24T08:32:13;35.17;;;18.33;;
51943;SDS011;37969;53.132;6.370;2023-04-24T08:34:40;32.15;;;17.23;;
51943;SDS011;37969;53.132;6.370;2023-04-24T08:37:06;34.25;;;18.55;;
51943;SDS011;37969;53.132;6.370;2023-04-24T08:39:32;25.38;;;15.38;;
51943;SDS011;37969;53.132;6.370;2023-04-24T08:41:58;27.23;;;14.75;;
51943;SDS011;37969;53.132;6.370;2023-04-24T08:44:31;27.77;;;17.02;;
51943;SDS011;37969;53.132;6.370;2023-04-24T08:46:58;22.60;;;12.85;;
51943;SDS011;37969;53.132;6.370;2023-04-24T08:49:25;24.58;;;16.45;;
51943;SDS011;37969;53.132;6.370;2023-04-24T08:51:52;33.00;;;17.42;;
51943;SDS011;37969;53.132;6.370;2023-04-24T08:54:18;31.38;;;17.35;;
51943;SDS011;37969;53.132;6.370;2023-04-24T08:56:44;24.85;;;16.23;;
51943;SDS011;37969;53.132;6.370;2023-04-24T08:59:12;22.60;;;14.25;;
51943;SDS011;37969;53.132;6.370;2023-04-24T09:01:39;23.88;;;15.30;;
51943;SDS011;37969;53.132;6.370;2023-04-24T09:04:06;24.65;;;14.32;;
51943;SDS011;37969;53.132;6.370;2023-04-24T09:06:33;17.63;;;12.50;;
51943;SDS011;37969;53.132;6.370;2023-04-24T09:09:00;20.80;;;12.30;;
51943;SDS011;37969;53.132;6.370;2023-04-24T09:11:27;17.05;;;12.05;;
51943;SDS011;37969;53.132;6.370;2023-04-24T09:13:54;15.98;;;9.98;;
51943;SDS011;37969;53.132;6.370;2023-04-24T09:16:20;19.58;;;10.75;;
51943;SDS011;37969;53.132;6.370;2023-04-24T09:18:49;12.43;;;9.68;;
51943;SDS011;37969;53.132;6.370;2023-04-24T09:21:15;17.17;;;9.98;;
51943;SDS011;37969;53.132;6.370;2023-04-24T09:23:41;20.23;;;8.45;;
51943;SDS011;37969;53.132;6.370;2023-04-24T09:26:09;22.10;;;8.52;;
51943;SDS011;37969;53.132;6.370;2023-04-24T09:28:36;18.60;;;8.15;;
51943;SDS011;37969;53.132;6.370;2023-04-24T09:31:05;17.27;;;8.65;;
51943;SDS011;37969;53.132;6.370;2023-04-24T09:33:31;13.75;;;7.25;;
51943;SDS011;37969;53.132;6.370;2023-04-24T09:35:58;18.35;;;8.55;;
51943;SDS011;37969;53.132;6.370;2023-04-24T09:38:31;14.77;;;6.90;;
51943;SDS011;37969;53.132;6.370;2023-04-24T09:40:59;16.00;;;7.03;;
51943;SDS011;37969;53.132;6.370;2023-04-24T09:43:26;18.40;;;8.15;;
51943;SDS011;37969;53.132;6.370;2023-04-24T09:45:55;14.98;;;6.70;;
51943;SDS011;37969;53.132;6.370;2023-04-24T09:48:29;14.18;;;6.00;;
51943;SDS011;37969;53.132;6.370;2023-04-24T09:50:56;13.45;;;4.75;;
51943;SDS011;37969;53.132;6.370;2023-04-24T09:53:23;19.58;;;6.35;;
51943;SDS011;37969;53.132;6.370;2023-04-24T09:55:50;9.45;;;5.15;;
51943;SDS011;37969;53.132;6.370;2023-04-24T09:58:18;11.18;;;4.00;;
51943;SDS011;37969;53.132;6.370;2023-04-24T10:00:44;9.98;;;4.00;;
51943;SDS011;37969;53.132;6.370;2023-04-24T10:03:11;11.38;;;4.22;;
51943;SDS011;37969;53.132;6.370;2023-04-24T10:05:38;8.18;;;3.72;;
51943;SDS011;37969;53.132;6.370;2023-04-24T10:10:31;12.48;;;4.55;;
51943;SDS011;37969;53.132;6.370;2023-04-24T10:12:58;12.25;;;3.97;;
51943;SDS011;37969;53.132;6.370;2023-04-24T10:15:25;9.27;;;3.60;;
51943;SDS011;37969;53.132;6.370;2023-04-24T10:17:52;16.17;;;4.80;;
51943;SDS011;37969;53.132;6.370;2023-04-24T10:20:19;12.10;;;3.53;;
51943;SDS011;37969;53.132;6.370;2023-04-24T10:22:47;9.85;;;3.17;;
51943;SDS011;37969;53.132;6.370;2023-04-24T10:25:16;11.60;;;3.00;;
51943;SDS011;37969;53.132;6.370;2023-04-24T10:27:42;12.93;;;2.88;;
51943;SDS011;37969;53.132;6.370;2023-04-24T10:30:09;8.60;;;2.70;;
51943;SDS011;37969;53.132;6.370;2023-04-24T10:32:36;7.20;;;2.45;;
51943;SDS011;37969;53.132;6.370;2023-04-24T10:35:02;12.57;;;3.20;;
51943;SDS011;37969;53.132;6.370;2023-04-24T10:37:29;13.85;;;3.30;;
51943;SDS011;37969;53.132;6.370;2023-04-24T10:40:01;7.80;;;3.00;;
51943;SDS011;37969;53.132;6.370;2023-04-24T10:42:27;11.15;;;3.22;;
51943;SDS011;37969;53.132;6.370;2023-04-24T10:44:53;11.15;;;2.67;;
51943;SDS011;37969;53.132;6.370;2023-04-24T10:47:20;10.30;;;3.35;;
51943;SDS011;37969;53.132;6.370;2023-04-24T10:49:47;13.30;;;3.10;;
51943;SDS011;37969;53.132;6.370;2023-04-24T10:52:18;16.27;;;3.13;;
51943;SDS011;37969;53.132;6.370;2023-04-24T10:54:46;15.00;;;2.78;;
51943;SDS011;37969;53.132;6.370;2023-04-24T10:57:25;15.32;;;3.45;;
51943;SDS011;37969;53.132;6.370;2023-04-24T11:00:10;7.45;;;2.75;;
51943;SDS011;37969;53.132;6.370;2023-04-24T11:02:39;10.75;;;2.13;;
51943;SDS011;37969;53.132;6.370;2023-04-24T11:05:08;9.40;;;2.50;;
51943;SDS011;37969;53.132;6.370;2023-04-24T11:10:25;10.27;;;2.47;;
51943;SDS011;37969;53.132;6.370;2023-04-24T11:12:51;12.82;;;2.17;;
51943;SDS011;37969;53.132;6.370;2023-04-24T11:15:17;16.00;;;2.58;;
51943;SDS011;37969;53.132;6.370;2023-04-24T11:17:45;9.27;;;2.50;;
51943;SDS011;37969;53.132;6.370;2023-04-24T11:20:11;13.15;;;2.55;;
51943;SDS011;37969;53.132;6.370;2023-04-24T11:22:38;8.50;;;1.75;;
51943;SDS011;37969;53.132;6.370;2023-04-24T11:25:06;9.10;;;2.28;;
51943;SDS011;37969;53.132;6.370;2023-04-24T11:27:42;5.85;;;2.22;;
51943;SDS011;37969;53.132;6.370;2023-04-24T11:30:08;8.73;;;1.80;;
51943;SDS011;37969;53.132;6.370;2023-04-24T11:32:36;7.60;;;1.98;;
51943;SDS011;37969;53.132;6.370;2023-04-24T11:35:08;6.38;;;2.10;;
51943;SDS011;37969;53.132;6.370;2023-04-24T11:37:35;9.75;;;1.90;;
51943;SDS011;37969;53.132;6.370;2023-04-24T11:40:03;6.57;;;1.95;;
51943;SDS011;37969;53.132;6.370;2023-04-24T11:42:33;9.52;;;1.83;;
51943;SDS011;37969;53.132;6.370;2023-04-24T11:45:00;5.35;;;2.10;;
51943;SDS011;37969;53.132;6.370;2023-04-24T11:47:27;6.03;;;1.50;;
51943;SDS011;37969;53.132;6.370;2023-04-24T11:49:54;6.88;;;1.60;;
51943;SDS011;37969;53.132;6.370;2023-04-24T11:52:20;16.23;;;1.75;;
51943;SDS011;37969;53.132;6.370;2023-04-24T11:54:47;8.93;;;1.73;;
51943;SDS011;37969;53.132;6.370;2023-04-24T11:57:14;9.80;;;2.17;;
51943;SDS011;37969;53.132;6.370;2023-04-24T11:59:40;12.68;;;2.20;;
51943;SDS011;37969;53.132;6.370;2023-04-24T12:02:07;5.75;;;1.65;;
51943;SDS011;37969;53.132;6.370;2023-04-24T12:04:38;4.93;;;1.63;;
51943;SDS011;37969;53.132;6.370;2023-04-24T12:07:05;4.75;;;1.88;;
51943;SDS011;37969;53.132;6.370;2023-04-24T12:09:40;5.45;;;2.25;;
51943;SDS011;37969;53.132;6.370;2023-04-24T12:12:06;5.95;;;1.90;;
51943;SDS011;37969;53.132;6.370;2023-04-24T12:14:33;6.32;;;1.85;;
51943;SDS011;37969;53.132;6.370;2023-04-24T12:16:59;17.02;;;2.08;;
51943;SDS011;37969;53.132;6.370;2023-04-24T12:19:25;6.80;;;2.28;;
51943;SDS011;37969;53.132;6.370;2023-04-24T12:21:59;7.88;;;2.05;;
51943;SDS011;37969;53.132;6.370;2023-04-24T12:24:25;8.30;;;1.70;;
51943;SDS011;37969;53.132;6.370;2023-04-24T12:26:51;4.65;;;1.92;;
51943;SDS011;37969;53.132;6.370;2023-04-24T12:29:20;11.93;;;2.03;;
51943;SDS011;37969;53.132;6.370;2023-04-24T12:31:46;5.90;;;1.10;;
51943;SDS011;37969;53.132;6.370;2023-04-24T12:34:17;3.30;;;1.13;;
51943;SDS011;37969;53.132;6.370;2023-04-24T12:36:43;6.28;;;1.95;;
51943;SDS011;37969;53.132;6.370;2023-04-24T12:39:14;10.32;;;1.50;;
51943;SDS011;37969;53.132;6.370;2023-04-24T12:41:54;7.90;;;1.65;;
51943;SDS011;37969;53.132;6.370;2023-04-24T12:44:29;10.32;;;1.75;;
51943;SDS011;37969;53.132;6.370;2023-04-24T12:46:56;10.77;;;1.83;;
51943;SDS011;37969;53.132;6.370;2023-04-24T12:49:22;8.40;;;1.52;;
51943;SDS011;37969;53.132;6.370;2023-04-24T12:51:48;7.28;;;1.20;;
51943;SDS011;37969;53.132;6.370;2023-04-24T12:54:14;5.97;;;1.70;;
51943;SDS011;37969;53.132;6.370;2023-04-24T12:56:40;4.72;;;1.42;;
51943;SDS011;37969;53.132;6.370;2023-04-24T12:59:06;7.60;;;1.52;;
51943;SDS011;37969;53.132;6.370;2023-04-24T13:01:33;7.15;;;1.45;;
51943;SDS011;37969;53.132;6.370;2023-04-24T13:03:59;10.88;;;1.10;;
51943;SDS011;37969;53.132;6.370;2023-04-24T13:06:25;6.88;;;1.33;;
51943;SDS011;37969;53.132;6.370;2023-04-24T13:08:51;2.95;;;0.90;;
51943;SDS011;37969;53.132;6.370;2023-04-24T13:11:17;5.40;;;0.90;;
51943;SDS011;37969;53.132;6.370;2023-04-24T13:13:44;3.70;;;0.77;;
51943;SDS011;37969;53.132;6.370;2023-04-24T13:16:10;5.43;;;1.13;;
51943;SDS011;37969;53.132;6.370;2023-04-24T13:18:36;5.35;;;0.82;;
51943;SDS011;37969;53.132;6.370;2023-04-24T13:21:02;5.85;;;1.10;;
51943;SDS011;37969;53.132;6.370;2023-04-24T13:23:28;4.85;;;0.93;;
51943;SDS011;37969;53.132;6.370;2023-04-24T13:25:54;7.00;;;1.27;;
51943;SDS011;37969;53.132;6.370;2023-04-24T13:28:24;3.60;;;1.10;;
51943;SDS011;37969;53.132;6.370;2023-04-24T13:30:50;7.28;;;1.35;;
51943;SDS011;37969;53.132;6.370;2023-04-24T13:33:17;9.05;;;1.33;;
51943;SDS011;37969;53.132;6.370;2023-04-24T13:35:43;2.53;;;1.10;;
51943;SDS011;37969;53.132;6.370;2023-04-24T13:38:09;4.18;;;1.13;;
51943;SDS011;37969;53.132;6.370;2023-04-24T13:40:35;6.80;;;1.20;;
51943;SDS011;37969;53.132;6.370;2023-04-24T13:43:01;5.28;;;0.90;;
51943;SDS011;37969;53.132;6.370;2023-04-24T13:45:28;6.45;;;1.20;;
51943;SDS011;37969;53.132;6.370;2023-04-24T13:47:54;4.25;;;1.00;;
51943;SDS011;37969;53.132;6.370;2023-04-24T13:50:22;5.93;;;1.50;;
51943;SDS011;37969;53.132;6.370;2023-04-24T13:52:48;7.07;;;0.95;;
51943;SDS011;37969;53.132;6.370;2023-04-24T13:55:14;4.57;;;1.10;;
51943;SDS011;37969;53.132;6.370;2023-04-24T13:57:41;9.82;;;1.85;;
51943;SDS011;37969;53.132;6.370;2023-04-24T14:00:07;10.02;;;1.95;;
51943;SDS011;37969;53.132;6.370;2023-04-24T14:02:35;8.73;;;2.28;;
51943;SDS011;37969;53.132;6.370;2023-04-24T14:05:02;17.02;;;2.30;;
51943;SDS011;37969;53.132;6.370;2023-04-24T14:07:28;11.38;;;2.65;;
51943;SDS011;37969;53.132;6.370;2023-04-24T14:09:55;14.43;;;3.08;;
51943;SDS011;37969;53.132;6.370;2023-04-24T14:12:22;19.08;;;3.75;;
51943;SDS011;37969;53.132;6.370;2023-04-24T14:14:48;10.07;;;2.47;;
51943;SDS011;37969;53.132;6.370;2023-04-24T14:17:14;11.88;;;2.20;;
51943;SDS011;37969;53.132;6.370;2023-04-24T14:19:41;12.98;;;3.22;;
51943;SDS011;37969;53.132;6.370;2023-04-24T14:22:07;16.48;;;3.10;;
51943;SDS011;37969;53.132;6.370;2023-04-24T14:24:33;13.57;;;3.35;;
51943;SDS011;37969;53.132;6.370;2023-04-24T14:26:59;15.30;;;2.90;;
51943;SDS011;37969;53.132;6.370;2023-04-24T14:29:26;9.00;;;2.65;;
51943;SDS011;37969;53.132;6.370;2023-04-24T14:31:52;8.48;;;2.40;;
51943;SDS011;37969;53.132;6.370;2023-04-24T14:34:18;12.18;;;2.42;;
51943;SDS011;37969;53.132;6.370;2023-04-24T14:36:44;8.73;;;2.67;;
51943;SDS011;37969;53.132;6.370;2023-04-24T14:39:11;7.05;;;2.25;;
51943;SDS011;37969;53.132;6.370;2023-04-24T14:41:37;13.25;;;3.03;;